createdAt,value
2019-02-27T00:01:39.015Z,9.40
2019-02-27T00:06:50.379Z,9.30
2019-02-27T00:12:02.140Z,9.30
2019-02-27T00:17:15.091Z,9.20
2019-02-27T00:22:26.810Z,9.20
2019-02-27T00:27:38.839Z,9.10
2019-02-27T00:32:51.327Z,9.00
2019-02-27T00:38:03.963Z,9.00
2019-02-27T00:43:15.882Z,8.90
2019-02-27T00:48:27.384Z,8.90
2019-02-27T00:53:39.212Z,8.80
2019-02-27T00:58:51.051Z,8.80
2019-02-27T01:04:03.175Z,8.70
2019-02-27T01:09:14.891Z,8.60
2019-02-27T01:14:29.323Z,8.60
2019-02-27T01:19:42.697Z,8.50
2019-02-27T01:24:54.015Z,8.50
2019-02-27T01:30:05.503Z,8.50
2019-02-27T01:35:18.875Z,8.50
2019-02-27T01:40:31.031Z,8.30
2019-02-27T01:45:42.509Z,8.30
2019-02-27T01:50:55.196Z,8.30
2019-02-27T01:56:07.533Z,8.20
2019-02-27T02:01:19.238Z,8.20
2019-02-27T02:06:32.470Z,8.10
2019-02-27T02:11:44.490Z,8.10
2019-02-27T02:16:56.455Z,8.10
2019-02-27T02:22:09.112Z,8.00
2019-02-27T02:27:20.871Z,8.00
2019-02-27T02:32:32.857Z,8.00
2019-02-27T02:37:44.444Z,7.90
2019-02-27T02:42:59.180Z,7.90
2019-02-27T02:48:09.558Z,7.80
2019-02-27T02:53:24.831Z,7.80
2019-02-27T02:58:34.159Z,7.70
2019-02-27T03:03:46.468Z,7.70
2019-02-27T03:08:58.672Z,7.70
2019-02-27T03:14:13.799Z,7.70
2019-02-27T03:19:23.671Z,7.60
2019-02-27T03:24:35.799Z,7.60
2019-02-27T03:29:52.010Z,7.60
2019-02-27T03:35:00.936Z,7.50
2019-02-27T03:40:13.071Z,7.50
2019-02-27T03:45:30.662Z,7.40
2019-02-27T03:50:37.717Z,7.40
2019-02-27T03:55:49.150Z,7.40
2019-02-27T04:01:00.958Z,7.30
2019-02-27T04:06:12.479Z,7.30
2019-02-27T04:11:24.298Z,7.30
2019-02-27T04:16:38.166Z,7.30
2019-02-27T04:21:49.925Z,7.20
2019-02-27T04:27:01.195Z,7.20
2019-02-27T04:32:13.250Z,7.20
2019-02-27T04:37:25.495Z,7.20
2019-02-27T04:42:37.458Z,7.10
2019-02-27T04:47:48.943Z,7.10
2019-02-27T04:53:00.542Z,7.10
2019-02-27T04:58:12.382Z,7.00
2019-02-27T05:03:25.825Z,7.00
2019-02-27T05:08:36.699Z,7.00
2019-02-27T05:13:48.673Z,7.00
2019-02-27T05:19:03.587Z,6.90
2019-02-27T05:24:13.692Z,6.90
2019-02-27T05:29:25.874Z,6.90
2019-02-27T05:34:37.239Z,6.80
2019-02-27T05:39:51.109Z,6.80
2019-02-27T05:45:02.359Z,6.80
2019-02-27T05:50:13.744Z,6.70
2019-02-27T05:55:25.558Z,6.70
2019-02-27T06:00:37.362Z,6.70
2019-02-27T06:05:49.920Z,6.70
2019-02-27T06:11:01.535Z,6.60
2019-02-27T06:16:13.551Z,6.60
2019-02-27T06:21:24.943Z,6.60
2019-02-27T06:26:36.892Z,6.60
2019-02-27T06:31:49.087Z,6.60
2019-02-27T06:37:01.283Z,6.50
2019-02-27T06:42:13.524Z,6.50
2019-02-27T06:47:25.323Z,6.50
2019-02-27T06:52:37.456Z,6.50
2019-02-27T06:57:49.460Z,6.50
2019-02-27T07:03:01.355Z,6.50
2019-02-27T07:08:13.422Z,6.60
2019-02-27T07:13:26.767Z,6.60
2019-02-27T07:18:41.426Z,6.80
2019-02-27T07:23:51.569Z,6.90
2019-02-27T07:29:03.811Z,7.00
2019-02-27T07:34:15.439Z,7.10
2019-02-27T07:39:27.423Z,7.20
2019-02-27T07:44:39.376Z,7.30
2019-02-27T07:49:50.641Z,7.40
2019-02-27T07:55:02.335Z,7.50
2019-02-27T08:00:15.171Z,7.50
2019-02-27T08:05:29.015Z,7.60
2019-02-27T08:10:40.859Z,7.60
2019-02-27T08:15:53.399Z,7.70
2019-02-27T08:21:05.443Z,7.80
2019-02-27T08:26:18.484Z,7.90
2019-02-27T08:31:32.056Z,8.10
2019-02-27T08:36:44.238Z,8.20
2019-02-27T08:41:56.047Z,8.30
2019-02-27T08:47:10.202Z,8.50
2019-02-27T08:52:21.036Z,8.60
2019-02-27T08:57:32.853Z,8.70
2019-02-27T09:02:44.255Z,8.90
2019-02-27T09:07:56.395Z,9.10
2019-02-27T09:13:08.095Z,9.20
2019-02-27T09:18:19.978Z,9.40
2019-02-27T09:23:31.680Z,9.50
2019-02-27T09:28:44.479Z,9.70
2019-02-27T09:33:57.355Z,9.90
2019-02-27T09:39:09.040Z,10.10
2019-02-27T09:44:21.176Z,10.30
2019-02-27T09:49:33.141Z,10.50
2019-02-27T09:54:46.962Z,10.70
2019-02-27T09:59:58.982Z,10.90
2019-02-27T10:05:12.425Z,11.10
2019-02-27T10:10:24.007Z,11.40
2019-02-27T10:15:35.602Z,11.60
2019-02-27T10:20:47.852Z,11.80
2019-02-27T10:25:59.587Z,11.90
2019-02-27T10:31:12.702Z,12.20
2019-02-27T10:36:24.175Z,12.40
2019-02-27T10:41:36.855Z,12.60
2019-02-27T10:46:48.738Z,12.80
2019-02-27T10:52:00.898Z,13.00
2019-02-27T10:57:12.994Z,13.30
2019-02-27T11:02:25.103Z,13.50
2019-02-27T11:07:37.388Z,13.70
2019-02-27T11:12:49.026Z,13.90
2019-02-27T11:18:04.229Z,14.10
2019-02-27T11:23:14.093Z,14.30
2019-02-27T11:28:25.354Z,14.60
2019-02-27T11:33:36.598Z,14.80
2019-02-27T11:38:47.855Z,14.90
2019-02-27T11:44:00.009Z,15.10
2019-02-27T11:49:12.063Z,15.30
2019-02-27T11:54:24.134Z,15.60
2019-02-27T11:59:35.923Z,15.70
2019-02-27T12:04:47.944Z,15.90
2019-02-27T12:10:01.020Z,16.10
2019-02-27T12:15:13.466Z,16.30
2019-02-27T12:20:25.219Z,16.40
2019-02-27T12:25:37.067Z,16.50
2019-02-27T12:30:48.362Z,16.60
2019-02-27T12:35:48.107Z,16.70
2019-02-27T12:41:00.456Z,16.80
2019-02-27T12:46:12.140Z,16.90
2019-02-27T12:51:23.495Z,17.00
2019-02-27T12:56:34.967Z,17.00
2019-02-27T13:01:50.777Z,17.00
2019-02-27T13:06:59.959Z,17.00
2019-02-27T13:12:12.087Z,17.10
2019-02-27T13:17:23.235Z,17.10
2019-02-27T13:22:34.803Z,17.20
2019-02-27T13:27:46.117Z,17.30
2019-02-27T13:33:00.693Z,17.30
2019-02-27T13:38:11.386Z,17.50
2019-02-27T13:43:24.435Z,17.60
2019-02-27T13:48:37.408Z,17.70
2019-02-27T13:53:48.892Z,17.80
2019-02-27T13:59:00.868Z,17.70
2019-02-27T14:04:12.755Z,17.80
2019-02-27T14:09:24.751Z,17.90
2019-02-27T14:14:36.048Z,18.10
2019-02-27T14:19:48.031Z,18.00
2019-02-27T14:25:02.473Z,18.00
2019-02-27T14:30:14.582Z,18.00
2019-02-27T14:35:26.614Z,18.10
2019-02-27T14:40:41.104Z,18.20
2019-02-27T14:45:51.764Z,18.20
2019-02-27T14:51:07.412Z,18.20
2019-02-27T14:56:16.951Z,18.30
2019-02-27T15:01:29.362Z,18.40
2019-02-27T15:06:41.195Z,18.30
2019-02-27T15:11:53.147Z,18.30
2019-02-27T15:17:04.401Z,18.30
2019-02-27T15:22:20.245Z,18.40
2019-02-27T15:27:29.268Z,18.40
2019-02-27T15:32:29.440Z,18.40
2019-02-27T15:37:55.511Z,18.30
2019-02-27T15:43:11.249Z,18.30
2019-02-27T15:48:21.509Z,18.20
2019-02-27T15:53:32.937Z,18.10
2019-02-27T15:58:44.758Z,18.00
2019-02-27T16:03:56.984Z,17.90
2019-02-27T16:09:08.452Z,17.80
2019-02-27T16:14:21.436Z,17.70
2019-02-27T16:19:32.955Z,17.60
2019-02-27T16:24:44.751Z,17.50
2019-02-27T16:29:57.426Z,17.40
2019-02-27T16:35:09.511Z,17.30
2019-02-27T16:40:21.451Z,17.20
2019-02-27T16:45:36.670Z,17.10
2019-02-27T16:50:48.275Z,17.00
2019-02-27T16:56:00.535Z,16.90
2019-02-27T17:01:12.672Z,16.80
2019-02-27T17:06:24.716Z,16.70
2019-02-27T17:11:36.347Z,16.50
2019-02-27T17:16:48.314Z,16.40
2019-02-27T17:22:00.142Z,16.30
2019-02-27T17:27:12.980Z,16.10
2019-02-27T17:32:27.494Z,16.00
2019-02-27T17:37:39.943Z,15.90
2019-02-27T17:42:53.485Z,15.80
2019-02-27T17:48:06.159Z,15.70
2019-02-27T17:53:20.445Z,15.60
2019-02-27T17:58:34.898Z,15.40
2019-02-27T18:03:45.298Z,15.30
2019-02-27T18:08:57.183Z,15.10
2019-02-27T18:13:56.923Z,15.00
2019-02-27T18:19:08.358Z,14.90
2019-02-27T18:24:20.405Z,14.90
2019-02-27T18:29:32.175Z,14.80
2019-02-27T18:34:44.403Z,14.80
2019-02-27T18:42:32.906Z,14.70
2019-02-27T18:47:35.268Z,14.60
2019-02-27T18:52:33.935Z,14.50
2019-02-27T18:57:33.988Z,14.40
2019-02-27T19:02:33.649Z,14.40
2019-02-27T19:07:33.398Z,14.40
2019-02-27T19:12:33.130Z,14.40
2019-02-27T19:17:34.532Z,14.30
2019-02-27T19:22:35.068Z,14.30
2019-02-27T19:27:34.780Z,14.20
2019-02-27T19:32:34.937Z,14.10
2019-02-27T19:37:36.359Z,14.10
2019-02-27T19:42:36.760Z,14.00
2019-02-27T19:47:36.423Z,14.30
2019-02-27T19:52:36.147Z,14.10
2019-02-27T19:57:35.959Z,13.90
2019-02-27T20:02:35.627Z,13.80
2019-02-27T20:07:35.800Z,13.70
2019-02-27T20:12:36.342Z,13.60
2019-02-27T20:17:36.420Z,13.60
2019-02-27T20:22:36.459Z,13.50
2019-02-27T20:27:36.090Z,13.40
2019-02-27T20:32:36.493Z,13.40
2019-02-27T20:37:37.165Z,13.30
2019-02-27T20:42:37.645Z,13.20
2019-02-27T20:47:37.295Z,13.20
2019-02-27T20:52:36.963Z,13.20
2019-02-27T20:57:39.510Z,13.20
2019-02-27T21:02:38.076Z,13.10
2019-02-27T21:07:37.723Z,13.10
2019-02-27T21:12:40.831Z,13.10
2019-02-27T21:17:38.906Z,13.10
2019-02-27T21:22:38.637Z,13.10
2019-02-27T21:27:38.462Z,13.00
2019-02-27T21:32:38.462Z,13.00
2019-02-27T21:37:41.273Z,12.90
2019-02-27T21:42:40.766Z,12.90
2019-02-27T21:47:40.586Z,13.00
2019-02-27T21:52:40.275Z,13.00
2019-02-27T21:57:40.304Z,13.00
2019-02-27T22:02:40.144Z,12.90
2019-02-27T22:07:39.791Z,12.90
2019-02-27T22:12:39.742Z,12.90
2019-02-27T22:17:39.423Z,12.90
2019-02-27T22:22:41.490Z,12.90
2019-02-27T22:27:43.219Z,12.80
2019-02-27T22:32:41.919Z,12.80
2019-02-27T22:37:41.835Z,12.80
2019-02-27T22:42:41.638Z,12.80
2019-02-27T22:47:41.409Z,12.70
2019-02-27T22:52:42.410Z,12.70
2019-02-27T22:57:42.178Z,12.70
2019-02-27T23:02:41.902Z,12.70
2019-02-27T23:07:41.710Z,12.70
2019-02-27T23:12:41.631Z,12.70
2019-02-27T23:17:41.312Z,12.70
2019-02-27T23:22:41.965Z,12.70
2019-02-27T23:27:41.850Z,12.60
2019-02-27T23:32:41.618Z,12.60
2019-02-27T23:37:41.347Z,12.60
2019-02-27T23:42:40.967Z,12.60
2019-02-27T23:47:40.638Z,12.60
2019-02-27T23:52:40.331Z,12.60
2019-02-27T23:57:40.391Z,12.60
